Time;durP1;ratioP1;P1;durP2;ratioP2;P2;SDS_P1;SDS_P2;PMS_P1;PMS_P2;Temp;Humidity;BMP_temperature;BMP_pressure;BME280_temperature;BME280_humidity;BME280_pressure;Samples;Min_cycle;Max_cycle;Signal;HPM_P1;HPM_P2
2021/06/28 00:01:29;;;;;;;4.38;1.60;;;23.10;70.10;;;;;;5121038;28;20028;-70
2021/06/28 00:03:54;;;;;;;2.97;1.30;;;23.10;71.10;;;;;;5120908;28;20057;-70
2021/06/28 00:06:20;;;;;;;2.28;1.27;;;23.10;71.30;;;;;;5121173;28;20028;-70
2021/06/28 00:08:47;;;;;;;3.95;1.15;;;23.10;71.60;;;;;;5120920;28;20028;-70
2021/06/28 00:11:13;;;;;;;3.17;1.52;;;23.00;71.80;;;;;;5121143;28;20046;-70
2021/06/28 00:13:41;;;;;;;3.25;1.45;;;22.90;72.10;;;;;;5121016;28;20035;-70
2021/06/28 00:16:07;;;;;;;3.78;1.52;;;22.70;72.60;;;;;;5120768;28;20084;-70
2021/06/28 00:18:33;;;;;;;5.28;1.20;;;22.40;73.60;;;;;;5121032;28;20031;-70
2021/06/28 00:20:59;;;;;;;3.28;1.92;;;22.30;74.60;;;;;;5121042;28;20024;-70
2021/06/28 00:23:25;;;;;;;3.03;1.20;;;22.20;75.30;;;;;;5120435;28;20085;-71
2021/06/28 00:25:51;;;;;;;3.65;1.30;;;22.00;75.70;;;;;;5120832;28;20030;-71
2021/06/28 00:28:17;;;;;;;3.17;1.40;;;22.00;75.70;;;;;;5120544;28;20034;-71
2021/06/28 00:30:44;;;;;;;4.35;1.40;;;22.00;75.70;;;;;;5120810;28;20019;-71
2021/06/28 00:33:15;;;;;;;2.72;1.40;;;22.00;75.60;;;;;;5120731;28;20055;-71
2021/06/28 00:35:42;;;;;;;3.70;1.27;;;21.90;75.80;;;;;;5120648;28;20028;-71
2021/06/28 00:38:08;;;;;;;3.45;1.63;;;21.70;76.20;;;;;;5120101;28;20056;-71
2021/06/28 00:40:35;;;;;;;2.88;1.23;;;21.60;76.60;;;;;;5120614;28;20097;-71
2021/06/28 00:43:02;;;;;;;2.63;1.45;;;21.50;77.00;;;;;;5120446;28;20039;-71
2021/06/28 00:45:30;;;;;;;1.60;1.08;;;21.40;76.80;;;;;;5120199;28;20019;-71
2021/06/28 00:47:59;;;;;;;4.28;1.55;;;21.40;77.30;;;;;;5120490;28;20020;-71
2021/06/28 00:50:26;;;;;;;4.80;1.40;;;21.40;77.30;;;;;;5120140;28;20061;-71
2021/06/28 00:52:58;;;;;;;4.68;1.35;;;21.50;77.50;;;;;;5120340;28;20028;-71
2021/06/28 00:55:25;;;;;;;2.10;1.40;;;21.40;77.60;;;;;;5120321;28;20016;-71
2021/06/28 00:57:51;;;;;;;2.92;1.23;;;21.40;77.40;;;;;;5120269;28;20081;-71
2021/06/28 01:00:18;;;;;;;3.38;1.35;;;21.40;77.60;;;;;;5120257;28;20028;-71
2021/06/28 01:02:44;;;;;;;3.17;1.33;;;21.40;77.90;;;;;;5119780;28;20026;-70
2021/06/28 01:05:13;;;;;;;5.50;1.98;;;21.60;77.50;;;;;;5119660;28;20024;-71
2021/06/28 01:07:39;;;;;;;3.95;1.60;;;21.60;77.20;;;;;;5119726;28;20110;-70
2021/06/28 01:10:06;;;;;;;5.35;1.40;;;21.60;77.30;;;;;;5120074;28;20341;-70
2021/06/28 01:12:33;;;;;;;5.13;1.52;;;21.60;77.40;;;;;;5119717;28;20023;-70
2021/06/28 01:15:00;;;;;;;5.65;1.70;;;21.60;77.40;;;;;;5119922;28;20035;-71
2021/06/28 01:17:27;;;;;;;3.35;1.52;;;21.50;77.90;;;;;;5119589;28;20035;-71
2021/06/28 01:20:05;;;;;;;3.33;1.50;;;21.40;78.10;;;;;;5101829;28;20085;-70
2021/06/28 01:22:32;;;;;;;1.90;1.25;;;21.20;78.60;;;;;;5119449;28;20484;-71
2021/06/28 01:24:59;;;;;;;5.47;1.70;;;21.10;79.10;;;;;;5119328;28;20024;-71
2021/06/28 01:27:26;;;;;;;3.40;1.50;;;21.10;79.00;;;;;;5119492;28;20030;-70
2021/06/28 01:29:53;;;;;;;6.68;1.63;;;21.10;79.10;;;;;;5120517;28;20041;-71
2021/06/28 01:32:19;;;;;;;3.05;1.30;;;21.10;79.00;;;;;;5119627;28;20030;-70
2021/06/28 01:34:45;;;;;;;3.58;1.50;;;21.20;78.50;;;;;;5119615;28;20024;-70
2021/06/28 01:37:22;;;;;;;2.47;1.45;;;21.30;79.50;;;;;;5119336;28;20093;-71
2021/06/28 01:39:50;;;;;;;6.47;1.52;;;21.20;79.40;;;;;;5119127;28;20034;-71
2021/06/28 01:42:15;;;;;;;2.25;1.33;;;21.20;79.80;;;;;;5119141;28;20061;-71
2021/06/28 01:44:41;;;;;;;6.45;1.67;;;21.20;79.00;;;;;;5119513;28;20023;-71
2021/06/28 01:47:07;;;;;;;5.57;2.63;;;21.20;78.60;;;;;;5119289;28;20019;-71
2021/06/28 01:49:33;;;;;;;4.93;1.60;;;21.20;78.70;;;;;;5119269;28;20095;-71
2021/06/28 01:51:58;;;;;;;6.30;1.40;;;21.30;78.50;;;;;;5118932;28;20300;-70
2021/06/28 01:54:28;;;;;;;2.85;1.38;;;21.30;78.50;;;;;;5119253;28;20024;-71
2021/06/28 01:56:54;;;;;;;2.55;1.55;;;21.30;78.60;;;;;;5119058;28;20507;-71
2021/06/28 01:59:29;;;;;;;5.05;1.50;;;21.20;78.70;;;;;;5119083;28;20107;-71
2021/06/28 02:01:56;;;;;;;6.95;1.52;;;21.20;79.10;;;;;;5119109;28;20032;-71
2021/06/28 02:04:21;;;;;;;2.28;1.40;;;21.20;78.80;;;;;;5118942;28;20390;-71
2021/06/28 02:06:48;;;;;;;3.30;1.30;;;21.10;78.80;;;;;;5118940;28;20051;-71
2021/06/28 02:09:14;;;;;;;4.43;1.50;;;21.10;79.10;;;;;;5118922;28;20028;-71
2021/06/28 02:11:40;;;;;;;2.88;1.88;;;21.10;79.40;;;;;;5118501;28;20028;-70
2021/06/28 02:14:06;;;;;;;2.35;1.48;;;21.10;79.10;;;;;;5118877;28;20166;-70
2021/06/28 02:16:32;;;;;;;3.45;1.38;;;21.20;76.90;;;;;;5117846;28;20032;-71
2021/06/28 02:18:58;;;;;;;4.68;1.83;;;21.40;75.90;;;;;;5118699;28;20463;-71
2021/06/28 02:21:24;;;;;;;3.65;1.50;;;21.70;74.70;;;;;;5118684;28;20100;-71
2021/06/28 02:23:50;;;;;;;3.58;1.40;;;21.90;74.10;;;;;;5118186;28;20032;-71
2021/06/28 02:26:15;;;;;;;2.08;1.33;;;22.10;73.10;;;;;;5118565;28;20032;-71
2021/06/28 02:28:47;;;;;;;3.80;1.38;;;22.30;73.00;;;;;;5118527;28;20084;-71
2021/06/28 02:31:19;;;;;;;3.65;1.40;;;22.40;73.30;;;;;;5118516;28;20072;-71
2021/06/28 02:33:46;;;;;;;3.45;1.20;;;22.40;72.60;;;;;;5118208;28;20026;-71
2021/06/28 02:36:13;;;;;;;2.40;1.45;;;22.40;72.80;;;;;;5118005;28;20122;-71
2021/06/28 02:38:40;;;;;;;3.42;1.30;;;22.40;72.50;;;;;;5117846;28;20444;-71
2021/06/28 02:41:07;;;;;;;2.92;1.48;;;22.40;72.40;;;;;;5100018;28;20023;-71
2021/06/28 02:43:33;;;;;;;7.75;1.80;;;22.40;72.10;;;;;;5118192;28;20106;-71
2021/06/28 02:45:59;;;;;;;1.75;1.00;;;22.50;73.00;;;;;;5118171;28;20047;-71
2021/06/28 02:48:25;;;;;;;2.45;1.42;;;22.40;73.80;;;;;;5118118;28;20443;-71
2021/06/28 02:50:51;;;;;;;5.57;2.00;;;22.40;73.50;;;;;;5117775;28;20400;-71
2021/06/28 02:53:17;;;;;;;3.95;1.30;;;22.30;73.70;;;;;;5118030;28;20023;-71
2021/06/28 02:55:47;;;;;;;2.25;1.60;;;22.10;74.20;;;;;;5117674;28;20028;-71
2021/06/28 02:58:14;;;;;;;4.15;1.23;;;21.90;74.90;;;;;;5117956;28;20118;-71
2021/06/28 03:00:40;;;;;;;4.10;1.50;;;21.80;75.10;;;;;;5117946;28;20031;-71
2021/06/28 03:03:07;;;;;;;2.97;1.33;;;21.60;75.40;;;;;;5117500;28;20443;-71
2021/06/28 03:05:33;;;;;;;2.42;1.60;;;21.70;76.30;;;;;;5117831;28;20320;-71
2021/06/28 03:07:59;;;;;;;5.38;1.42;;;21.70;75.60;;;;;;5117816;28;20072;-71
2021/06/28 03:10:24;;;;;;;5.82;1.50;;;21.60;75.90;;;;;;5117779;28;20029;-70
2021/06/28 03:12:50;;;;;;;6.38;1.30;;;21.50;76.50;;;;;;5117441;28;20023;-71
2021/06/28 03:15:20;;;;;;;4.18;1.55;;;21.40;76.70;;;;;;5117428;28;20027;-71
2021/06/28 03:17:46;;;;;;;2.10;1.60;;;21.40;77.20;;;;;;5117393;28;20026;-70
2021/06/28 03:20:14;;;;;;;1.90;1.30;;;21.50;76.80;;;;;;5117332;28;20028;-71
2021/06/28 03:22:42;;;;;;;3.40;1.55;;;21.40;77.00;;;;;;5117278;28;20016;-71
2021/06/28 03:25:09;;;;;;;6.75;1.52;;;21.40;77.30;;;;;;5117161;28;20027;-70
2021/06/28 03:27:35;;;;;;;3.20;1.60;;;21.30;77.30;;;;;;5117038;28;20027;-71
2021/06/28 03:30:02;;;;;;;3.85;1.42;;;21.30;77.50;;;;;;5117242;28;20023;-71
2021/06/28 03:32:28;;;;;;;2.38;1.45;;;21.20;78.10;;;;;;5117458;28;20027;-71
2021/06/28 03:34:53;;;;;;;3.70;1.50;;;21.20;78.70;;;;;;5117233;28;20292;-70
2021/06/28 03:37:19;;;;;;;3.55;1.40;;;21.20;78.40;;;;;;5117166;28;20038;-71
2021/06/28 03:39:45;;;;;;;4.15;1.50;;;21.20;78.70;;;;;;5117491;28;20110;-70
2021/06/28 03:42:10;;;;;;;4.70;2.05;;;21.10;79.20;;;;;;5117437;28;20039;-70
2021/06/28 03:44:36;;;;;;;3.30;1.48;;;21.10;78.90;;;;;;5117530;28;20307;-71
2021/06/28 03:47:02;;;;;;;5.65;1.77;;;21.10;79.10;;;;;;5117006;28;20101;-71
2021/06/28 03:49:28;;;;;;;2.95;1.60;;;21.10;78.90;;;;;;5116973;28;20041;-71
2021/06/28 03:51:54;;;;;;;6.88;2.13;;;21.10;78.90;;;;;;5117004;28;20111;-71
2021/06/28 03:54:20;;;;;;;2.53;1.40;;;21.10;79.00;;;;;;5117010;28;20427;-70
2021/06/28 03:56:46;;;;;;;6.05;1.60;;;21.10;79.30;;;;;;5116880;28;20111;-70
2021/06/28 03:59:12;;;;;;;4.18;1.50;;;21.20;79.00;;;;;;5116917;28;20031;-71
2021/06/28 04:01:38;;;;;;;4.43;1.48;;;21.20;79.20;;;;;;5117238;28;20035;-71
2021/06/28 04:04:04;;;;;;;3.42;1.88;;;21.20;79.80;;;;;;5117156;28;20020;-71
2021/06/28 04:06:30;;;;;;;3.92;1.67;;;21.20;79.80;;;;;;5116832;28;20427;-71
2021/06/28 04:08:56;;;;;;;8.95;1.60;;;21.10;79.70;;;;;;5117168;28;20099;-70
2021/06/28 04:11:22;;;;;;;4.68;1.60;;;21.10;79.60;;;;;;5117157;28;20368;-71
2021/06/28 04:13:47;;;;;;;2.90;1.30;;;21.20;79.40;;;;;;5117066;28;20027;-71
2021/06/28 04:16:13;;;;;;;3.70;1.65;;;21.20;79.30;;;;;;5116757;28;20119;-71
2021/06/28 04:18:39;;;;;;;6.00;1.60;;;21.20;79.40;;;;;;5117063;28;20031;-71
2021/06/28 04:21:05;;;;;;;4.28;1.50;;;21.30;79.60;;;;;;5117084;28;20035;-71
2021/06/28 04:23:30;;;;;;;3.20;1.52;;;21.30;79.70;;;;;;5116922;28;20020;-71
2021/06/28 04:25:56;;;;;;;3.55;1.48;;;21.30;79.90;;;;;;5116990;28;20308;-70
2021/06/28 04:28:22;;;;;;;2.50;1.55;;;21.30;79.90;;;;;;5116637;28;20105;-70
2021/06/28 04:30:48;;;;;;;2.60;1.50;;;21.30;79.40;;;;;;5116984;28;20027;-71
2021/06/28 04:33:14;;;;;;;4.70;1.40;;;21.40;79.80;;;;;;5116927;28;20030;-71
2021/06/28 04:35:39;;;;;;;2.08;1.70;;;21.40;79.10;;;;;;5116552;28;20334;-71
2021/06/28 04:38:05;;;;;;;1.55;1.38;;;21.60;77.40;;;;;;5116601;28;20054;-70
2021/06/28 04:40:31;;;;;;;3.15;1.50;;;21.80;77.60;;;;;;5118643;28;20028;-71
2021/06/28 04:42:58;;;;;;;5.57;1.80;;;22.00;77.40;;;;;;5120485;28;20042;-72
2021/06/28 04:45:25;;;;;;;2.67;1.33;;;22.10;77.00;;;;;;5120227;28;20110;-71
2021/06/28 04:47:52;;;;;;;3.53;2.00;;;22.30;76.00;;;;;;5120514;28;20020;-70
2021/06/28 04:50:22;;;;;;;2.35;1.35;;;22.50;76.40;;;;;;5120163;28;20030;-70
2021/06/28 04:52:48;;;;;;;4.85;1.70;;;22.60;76.60;;;;;;5120481;28;20165;-70
2021/06/28 04:55:15;;;;;;;3.55;1.58;;;22.70;77.00;;;;;;5120012;28;20043;-70
2021/06/28 04:57:42;;;;;;;2.60;1.30;;;22.80;77.70;;;;;;5120008;28;20027;-71
2021/06/28 05:00:10;;;;;;;2.55;1.40;;;22.80;77.30;;;;;;5120283;28;20024;-71
2021/06/28 05:02:36;;;;;;;4.43;1.30;;;22.80;77.90;;;;;;5120140;28;20315;-70
2021/06/28 05:05:03;;;;;;;1.85;1.00;;;22.90;74.60;;;;;;5120085;28;20027;-70
2021/06/28 05:07:29;;;;;;;2.63;1.13;;;23.00;75.00;;;;;;5120123;28;20024;-70
2021/06/28 05:09:56;;;;;;;3.58;1.42;;;23.10;75.90;;;;;;5120115;28;20062;-70
2021/06/28 05:12:22;;;;;;;3.55;1.52;;;23.20;75.90;;;;;;5120057;28;20315;-70
2021/06/28 05:14:48;;;;;;;1.80;1.20;;;23.20;76.00;;;;;;5119633;28;20032;-70
2021/06/28 05:17:13;;;;;;;2.90;1.40;;;23.30;75.60;;;;;;5119586;28;20039;-72
2021/06/28 05:19:39;;;;;;;1.98;1.30;;;23.40;76.10;;;;;;5119883;28;20029;-72
2021/06/28 05:22:05;;;;;;;6.40;2.25;;;23.50;76.10;;;;;;5119884;28;20407;-70
2021/06/28 05:24:31;;;;;;;4.15;1.70;;;23.60;76.40;;;;;;5119460;28;20027;-71
2021/06/28 05:26:57;;;;;;;4.32;1.80;;;23.80;74.60;;;;;;5119428;28;20059;-71
2021/06/28 05:29:24;;;;;;;6.75;1.40;;;23.90;75.70;;;;;;5119401;28;20019;-71
2021/06/28 05:31:49;;;;;;;1.95;1.25;;;23.90;74.20;;;;;;5119708;28;20028;-71
2021/06/28 05:34:15;;;;;;;6.13;1.58;;;24.00;74.50;;;;;;5119670;28;20308;-71
2021/06/28 05:36:41;;;;;;;3.00;1.55;;;24.10;71.80;;;;;;5119242;28;20045;-71
2021/06/28 05:39:07;;;;;;;2.53;1.48;;;24.20;71.60;;;;;;5119153;28;20044;-71
2021/06/28 05:41:33;;;;;;;4.15;1.27;;;24.30;71.40;;;;;;5119424;28;20350;-71
2021/06/28 05:43:58;;;;;;;7.82;1.98;;;24.40;73.30;;;;;;5119534;28;20023;-71
2021/06/28 05:46:24;;;;;;;4.90;1.42;;;24.50;73.60;;;;;;5119299;28;20028;-71
2021/06/28 05:48:50;;;;;;;2.92;1.15;;;24.50;73.50;;;;;;5119025;28;20110;-71
2021/06/28 05:51:18;;;;;;;3.38;1.50;;;24.50;72.70;;;;;;5118208;28;20099;-71
2021/06/28 05:53:45;;;;;;;5.13;1.20;;;24.50;72.80;;;;;;5119161;28;20319;-71
2021/06/28 05:56:11;;;;;;;5.05;1.30;;;24.50;72.30;;;;;;5118855;28;20438;-71
2021/06/28 05:58:37;;;;;;;3.92;1.58;;;24.60;72.30;;;;;;5118695;28;20028;-71
2021/06/28 06:01:03;;;;;;;3.58;1.25;;;24.80;71.50;;;;;;5118768;28;20024;-71
2021/06/28 06:03:29;;;;;;;3.05;1.42;;;25.00;71.80;;;;;;5118675;28;20026;-71
2021/06/28 06:05:55;;;;;;;4.65;1.52;;;25.20;70.80;;;;;;5118980;28;20024;-71
2021/06/28 06:08:24;;;;;;;4.15;1.25;;;25.50;70.40;;;;;;5118651;28;20312;-71
2021/06/28 06:10:54;;;;;;;4.85;1.10;;;25.90;70.20;;;;;;5118907;28;20031;-71
2021/06/28 06:13:20;;;;;;;6.32;1.17;;;26.20;70.20;;;;;;5118710;28;20419;-71
2021/06/28 06:15:47;;;;;;;2.13;1.08;;;26.40;67.50;;;;;;5118413;28;20549;-71
2021/06/28 06:18:13;;;;;;;5.78;1.20;;;26.70;68.10;;;;;;5118762;28;20027;-71
2021/06/28 06:20:39;;;;;;;3.20;1.27;;;27.00;65.40;;;;;;5118722;28;20431;-71
2021/06/28 06:23:05;;;;;;;5.15;1.10;;;27.40;65.50;;;;;;5118272;28;20024;-71
2021/06/28 06:25:31;;;;;;;3.58;1.00;;;28.10;64.00;;;;;;5118589;28;20030;-71
2021/06/28 06:27:56;;;;;;;8.20;1.30;;;28.80;62.20;;;;;;5118539;28;20016;-71
2021/06/28 06:30:22;;;;;;;3.08;1.15;;;29.20;61.70;;;;;;5118251;28;20383;-71
2021/06/28 06:32:49;;;;;;;2.28;1.10;;;29.80;60.40;;;;;;5118444;28;20024;-71
2021/06/28 06:35:15;;;;;;;1.80;1.00;;;30.30;60.60;;;;;;5118375;28;20051;-71
2021/06/28 06:37:41;;;;;;;2.42;1.08;;;30.80;59.70;;;;;;5117904;28;20064;-71
2021/06/28 06:40:08;;;;;;;3.78;1.10;;;31.30;56.30;;;;;;5118061;28;20102;-71
2021/06/28 06:42:34;;;;;;;2.58;1.10;;;31.60;57.50;;;;;;5117911;28;20409;-71
2021/06/28 06:45:00;;;;;;;2.85;0.90;;;31.80;57.20;;;;;;5118140;28;20036;-71
2021/06/28 06:47:25;;;;;;;2.10;0.82;;;31.80;56.90;;;;;;5117896;28;20022;-71
2021/06/28 06:49:51;;;;;;;2.65;1.10;;;32.00;55.20;;;;;;5118139;28;20023;-71
2021/06/28 06:52:17;;;;;;;3.10;1.00;;;32.30;54.80;;;;;;5117833;28;20055;-71
2021/06/28 06:54:43;;;;;;;3.42;1.30;;;32.40;55.60;;;;;;5117776;28;20047;-71
2021/06/28 06:57:10;;;;;;;3.10;1.08;;;32.50;54.60;;;;;;5117674;28;20027;-71
2021/06/28 06:59:36;;;;;;;2.45;1.10;;;32.40;55.70;;;;;;5117969;28;20031;-71
2021/06/28 07:02:02;;;;;;;3.90;1.40;;;32.50;56.90;;;;;;5117907;28;20107;-71
2021/06/28 07:04:28;;;;;;;3.83;1.33;;;32.40;56.90;;;;;;5117501;28;20176;-71
2021/06/28 07:06:53;;;;;;;4.30;1.33;;;32.40;57.80;;;;;;5117528;28;20020;-71
2021/06/28 07:09:19;;;;;;;3.25;1.30;;;32.50;57.10;;;;;;5117465;28;20069;-71
2021/06/28 07:11:45;;;;;;;2.65;1.13;;;32.30;58.50;;;;;;5117756;28;20030;-71
2021/06/28 07:14:11;;;;;;;2.78;1.20;;;32.30;57.30;;;;;;5117813;28;20042;-71
2021/06/28 07:16:37;;;;;;;3.08;1.45;;;32.50;57.00;;;;;;5117716;28;20031;-71
2021/06/28 07:19:04;;;;;;;3.78;1.10;;;32.40;57.00;;;;;;5117690;28;20307;-71
2021/06/28 07:21:33;;;;;;;4.35;1.55;;;32.20;58.70;;;;;;5117650;28;20023;-71
2021/06/28 07:23:59;;;;;;;3.50;1.20;;;32.00;57.30;;;;;;5117212;28;20028;-71
2021/06/28 07:26:25;;;;;;;3.53;1.23;;;32.30;58.10;;;;;;5117229;28;20107;-71
2021/06/28 07:28:54;;;;;;;1.40;1.10;;;32.50;57.00;;;;;;5117547;28;20024;-72
2021/06/28 07:31:21;;;;;;;3.75;1.20;;;32.60;57.30;;;;;;5117227;28;20080;-71
2021/06/28 07:33:46;;;;;;;6.68;1.40;;;32.90;55.50;;;;;;5117498;28;20031;-71
2021/06/28 07:36:12;;;;;;;5.70;1.35;;;32.80;57.10;;;;;;5117438;28;20050;-71
2021/06/28 07:38:39;;;;;;;4.32;1.52;;;32.70;56.40;;;;;;5116940;28;20058;-72
2021/06/28 07:41:06;;;;;;;4.97;1.40;;;32.50;56.80;;;;;;5117125;28;20020;-72
2021/06/28 07:43:32;;;;;;;5.60;1.77;;;32.60;57.10;;;;;;5117192;28;20392;-71
2021/06/28 07:45:58;;;;;;;6.97;1.33;;;32.70;56.60;;;;;;5117080;28;20026;-71
2021/06/28 07:48:24;;;;;;;3.30;1.20;;;32.70;56.90;;;;;;5117333;28;20028;-72
2021/06/28 07:50:49;;;;;;;3.10;1.35;;;33.00;57.00;;;;;;5117362;28;20028;-72
2021/06/28 07:53:16;;;;;;;3.95;1.45;;;33.40;55.20;;;;;;5117257;28;20103;-72
2021/06/28 07:55:43;;;;;;;4.85;1.30;;;33.10;55.10;;;;;;5116951;28;20424;-71
2021/06/28 07:58:09;;;;;;;2.90;1.42;;;32.70;57.40;;;;;;5117241;28;20020;-71
2021/06/28 08:00:35;;;;;;;5.30;1.40;;;32.70;56.60;;;;;;5117258;28;20016;-71
2021/06/28 08:03:02;;;;;;;3.03;1.60;;;32.60;55.00;;;;;;5116834;28;20110;-72
2021/06/28 08:05:28;;;;;;;4.72;1.75;;;32.70;55.70;;;;;;5117200;28;20020;-72
2021/06/28 08:07:53;;;;;;;3.45;1.42;;;32.90;56.80;;;;;;5117194;28;20320;-71
2021/06/28 08:10:19;;;;;;;2.80;1.30;;;32.90;55.90;;;;;;5116834;28;20027;-72
2021/06/28 08:12:47;;;;;;;5.10;1.70;;;33.00;55.20;;;;;;5117113;28;20031;-71
2021/06/28 08:15:15;;;;;;;2.85;1.17;;;33.30;55.70;;;;;;5118448;28;20072;-72
2021/06/28 08:17:41;;;;;;;5.32;1.42;;;33.60;54.00;;;;;;5120807;28;20031;-72
2021/06/28 08:20:08;;;;;;;3.65;1.70;;;33.80;54.30;;;;;;5121103;28;20099;-72
2021/06/28 08:22:36;;;;;;;6.18;1.50;;;34.00;54.00;;;;;;5121020;28;20417;-72
2021/06/28 08:25:03;;;;;;;3.67;1.35;;;34.00;54.00;;;;;;5120902;28;20028;-72
2021/06/28 08:27:29;;;;;;;2.40;1.30;;;34.00;51.70;;;;;;5120608;28;20324;-72
2021/06/28 08:29:55;;;;;;;3.47;1.45;;;34.10;52.80;;;;;;5120575;28;20023;-72
2021/06/28 08:32:20;;;;;;;3.88;1.30;;;34.10;52.20;;;;;;5120808;28;20037;-72
2021/06/28 08:34:46;;;;;;;4.35;1.58;;;33.90;53.30;;;;;;5120513;28;20046;-72
2021/06/28 08:37:12;;;;;;;3.67;1.48;;;33.60;52.40;;;;;;5120521;28;20031;-72
2021/06/28 08:39:37;;;;;;;3.17;1.27;;;33.70;52.30;;;;;;5120719;28;20455;-72
2021/06/28 08:42:06;;;;;;;5.82;1.98;;;33.80;53.80;;;;;;5120618;28;20324;-72
2021/06/28 08:44:32;;;;;;;3.55;1.73;;;33.90;52.90;;;;;;5120724;28;20495;-72
2021/06/28 08:46:59;;;;;;;5.20;1.70;;;33.80;52.10;;;;;;5120523;28;20030;-72
2021/06/28 08:49:25;;;;;;;3.83;1.38;;;33.80;52.60;;;;;;5120499;28;20039;-72
2021/06/28 08:51:51;;;;;;;3.92;1.70;;;33.90;53.30;;;;;;5120448;28;20297;-72
2021/06/28 08:54:17;;;;;;;5.35;1.75;;;34.00;53.20;;;;;;5120463;28;20404;-72
2021/06/28 08:56:45;;;;;;;4.18;1.40;;;34.20;52.60;;;;;;5120324;28;20049;-72
2021/06/28 08:59:11;;;;;;;3.55;1.50;;;34.20;53.60;;;;;;5120321;28;20114;-72
2021/06/28 09:01:38;;;;;;;5.45;1.90;;;34.40;52.20;;;;;;5120289;28;20357;-72
2021/06/28 09:04:05;;;;;;;4.10;1.70;;;34.20;51.20;;;;;;5120206;28;20311;-72
2021/06/28 09:06:31;;;;;;;3.13;1.52;;;34.00;54.30;;;;;;5119840;28;20030;-72
2021/06/28 09:09:02;;;;;;;3.25;1.10;;;34.00;52.10;;;;;;5119865;28;20047;-72
2021/06/28 09:11:28;;;;;;;10.23;1.95;;;34.00;52.00;;;;;;5120188;28;20319;-72
2021/06/28 09:13:56;;;;;;;5.07;1.70;;;34.20;52.90;;;;;;5120214;28;20106;-72
2021/06/28 09:16:29;;;;;;;5.13;1.42;;;34.30;51.10;;;;;;5119635;28;20423;-72
2021/06/28 09:19:09;;;;;;;2.58;1.23;;;34.40;52.70;;;;;;5119665;28;20027;-72
2021/06/28 09:21:38;;;;;;;5.68;2.10;;;34.50;52.00;;;;;;5119951;28;20019;-72
2021/06/28 09:24:26;;;;;;;4.43;1.85;;;34.40;51.10;;;;;;5119788;28;20043;-72
2021/06/28 09:26:55;;;;;;;5.00;2.00;;;34.60;50.00;;;;;;5119135;28;20073;-72
2021/06/28 09:29:35;;;;;;;4.00;1.70;;;34.60;50.70;;;;;;5119743;28;20024;-72
2021/06/28 09:32:09;;;;;;;5.90;1.70;;;34.40;50.90;;;;;;5119451;28;20027;-72
2021/06/28 09:34:36;;;;;;;6.68;1.83;;;34.20;52.20;;;;;;5119715;28;20026;-72
2021/06/28 09:37:02;;;;;;;6.47;2.00;;;34.70;55.10;;;;;;5119553;28;20081;-72
2021/06/28 09:39:36;;;;;;;4.65;1.88;;;34.90;51.70;;;;;;5119114;28;20051;-72
2021/06/28 09:42:08;;;;;;;;;;;34.60;51.20;;;;;;5101642;28;20028;-72
2021/06/28 09:44:37;;;;;;;4.55;1.90;;;34.50;51.70;;;;;;5119041;28;20283;-72
2021/06/28 09:47:09;;;;;;;3.75;2.05;;;34.60;52.70;;;;;;5119041;28;20323;-72
2021/06/28 09:49:35;;;;;;;7.13;2.30;;;34.40;51.60;;;;;;5119321;28;20290;-72
2021/06/28 09:52:02;;;;;;;3.65;2.60;;;34.40;52.50;;;;;;5118937;28;20020;-72
2021/06/28 09:54:28;;;;;;;4.03;2.33;;;34.40;51.90;;;;;;5119543;28;20312;-72
2021/06/28 09:56:55;;;;;;;4.47;2.10;;;34.30;51.20;;;;;;5118839;28;20027;-72
2021/06/28 09:59:32;;;;;;;7.03;2.47;;;34.30;52.80;;;;;;5119101;28;20032;-72
2021/06/28 10:02:28;;;;;;;8.65;1.70;;;34.50;51.30;;;;;;5119173;28;20316;-72
2021/06/28 10:04:59;;;;;;;3.30;1.65;;;34.80;55.40;;;;;;5119004;28;20111;-72
2021/06/28 10:07:31;;;;;;;5.38;1.80;;;35.10;54.00;;;;;;5119032;28;20020;-72
2021/06/28 10:10:19;;;;;;;6.97;2.25;;;35.20;54.60;;;;;;5118673;28;20028;-72
2021/06/28 10:12:46;;;;;;;4.85;2.17;;;35.30;50.80;;;;;;5118898;28;20099;-72
2021/06/28 10:15:15;;;;;;;4.10;2.13;;;35.60;53.00;;;;;;5118788;28;20046;-72
2021/06/28 10:17:42;;;;;;;4.43;2.38;;;35.40;50.30;;;;;;5117387;27;20051;-72
2021/06/28 10:20:09;;;;;;;7.55;2.40;;;35.20;52.50;;;;;;5127925;27;20297;-72
2021/06/28 10:22:37;;;;;;;8.90;2.28;;;35.00;49.90;;;;;;5138941;27;20419;-72
2021/06/28 10:25:04;;;;;;;5.10;2.10;;;35.00;52.90;;;;;;5139087;27;20038;-72
2021/06/28 10:27:32;;;;;;;4.60;2.08;;;35.00;53.60;;;;;;5139159;27;20027;-72
2021/06/28 10:29:58;;;;;;;3.75;1.77;;;35.20;52.00;;;;;;5138833;27;20027;-72
2021/06/28 10:32:24;;;;;;;4.22;2.25;;;35.30;53.00;;;;;;5139021;27;20026;-72
2021/06/28 10:34:53;;;;;;;7.68;2.80;;;35.50;53.40;;;;;;5139039;27;20335;-72
2021/06/28 10:37:43;;;;;;;6.07;2.25;;;35.30;52.50;;;;;;5137775;27;20100;-73
2021/06/28 10:40:19;;;;;;;6.28;2.03;;;35.30;54.10;;;;;;5138991;27;20034;-72
2021/06/28 10:42:57;;;;;;;5.60;2.08;;;35.20;51.60;;;;;;5138470;27;20415;-72
2021/06/28 10:45:44;;;;;;;3.90;2.53;;;35.10;53.90;;;;;;5138406;27;20031;-72
2021/06/28 10:48:19;;;;;;;6.18;1.85;;;35.40;51.50;;;;;;5138783;27;20029;-72
2021/06/28 10:50:58;;;;;;;3.92;1.65;;;35.00;54.00;;;;;;5138709;27;20023;-72
2021/06/28 10:53:33;;;;;;;5.63;1.90;;;35.20;53.80;;;;;;5138687;27;20023;-72
2021/06/28 10:58:54;;;;;;;4.60;1.75;;;35.00;50.30;;;;;;5138927;27;20084;-72
2021/06/28 11:01:36;;;;;;;3.55;2.00;;;35.00;53.70;;;;;;5138571;27;20076;-72
2021/06/28 11:04:28;;;;;;;4.65;1.70;;;35.10;51.80;;;;;;5138456;27;20027;-72
2021/06/28 11:07:00;;;;;;;5.55;2.10;;;35.30;53.80;;;;;;5138471;27;20072;-72
2021/06/28 11:09:46;;;;;;;3.75;1.58;;;35.10;52.00;;;;;;5138421;27;20023;-71
2021/06/28 11:12:21;;;;;;;4.80;1.60;;;35.20;54.10;;;;;;5138385;27;20039;-71
2021/06/28 11:15:07;;;;;;;4.32;1.70;;;35.30;51.90;;;;;;5138623;27;20410;-71
2021/06/28 11:17:52;;;;;;;3.92;1.38;;;35.10;51.30;;;;;;5138287;27;20031;-72
2021/06/28 11:20:25;;;;;;;3.58;1.70;;;35.10;52.30;;;;;;5137994;27;20027;-72
2021/06/28 11:23:11;;;;;;;3.25;1.35;;;35.10;53.30;;;;;;5137937;27;20039;-72
2021/06/28 11:25:55;;;;;;;4.80;1.70;;;34.80;48.80;;;;;;5138105;27;20031;-72
2021/06/28 11:28:39;;;;;;;3.22;1.30;;;34.30;51.50;;;;;;5138226;27;20095;-71
2021/06/28 11:31:10;;;;;;;6.63;1.70;;;34.10;53.20;;;;;;5138174;27;20027;-72
2021/06/28 11:33:46;;;;;;;5.40;1.60;;;34.20;51.30;;;;;;5138166;27;20050;-72
2021/06/28 11:36:27;;;;;;;4.20;1.70;;;34.10;52.70;;;;;;5138024;27;20027;-72
2021/06/28 11:38:55;;;;;;;4.20;1.35;;;34.20;52.70;;;;;;5137518;27;20047;-72
2021/06/28 11:41:23;;;;;;;5.03;1.80;;;34.00;55.00;;;;;;5137658;27;20071;-72
2021/06/28 11:44:03;;;;;;;3.35;1.30;;;33.80;50.90;;;;;;5137831;28;20116;-72
2021/06/28 11:46:33;;;;;;;9.35;1.48;;;33.50;56.40;;;;;;5137959;28;20026;-72
2021/06/28 11:49:12;;;;;;;5.95;1.60;;;33.50;53.70;;;;;;5139016;27;20039;-71
2021/06/28 11:51:45;;;;;;;4.22;1.52;;;33.20;55.30;;;;;;5142311;27;20048;-71
2021/06/28 11:54:14;;;;;;;3.47;1.45;;;33.10;54.50;;;;;;5142190;27;20106;-71
2021/06/28 11:56:45;;;;;;;2.58;1.38;;;33.00;53.00;;;;;;5142041;27;20079;-71
2021/06/28 11:59:13;;;;;;;4.78;1.20;;;33.10;58.00;;;;;;5142104;27;20034;-71
2021/06/28 12:01:48;;;;;;;6.47;1.60;;;32.90;56.90;;;;;;5141746;27;20438;-72
2021/06/28 12:04:16;;;;;;;4.35;1.48;;;32.90;55.70;;;;;;5141651;27;20034;-72
2021/06/28 12:06:43;;;;;;;3.00;1.65;;;32.90;54.50;;;;;;5141576;27;20015;-71
2021/06/28 12:09:14;;;;;;;5.20;1.55;;;32.70;57.90;;;;;;5141919;27;20024;-72
2021/06/28 12:12:10;;;;;;;4.10;1.35;;;32.60;55.00;;;;;;5141854;27;20052;-72
2021/06/28 12:14:35;;;;;;;;;;;32.60;54.40;;;;;;5139792;27;20039;-72
2021/06/28 12:17:08;;;;;;;5.18;1.85;;;32.40;52.90;;;;;;5141386;27;19994;-72
2021/06/28 12:19:34;;;;;;;7.43;1.60;;;32.30;60.50;;;;;;5141706;27;20027;-72
2021/06/28 12:22:11;;;;;;;3.35;1.25;;;32.20;58.10;;;;;;5141335;27;20039;-72
2021/06/28 12:24:37;;;;;;;4.75;1.70;;;32.10;59.10;;;;;;5141592;27;20015;-72
2021/06/28 12:27:14;;;;;;;3.42;1.40;;;32.00;57.90;;;;;;5141178;27;20407;-72
2021/06/28 12:29:48;;;;;;;4.68;1.50;;;32.10;57.00;;;;;;5141520;27;20019;-72
2021/06/28 12:32:26;;;;;;;4.63;1.48;;;32.10;59.50;;;;;;5141233;27;20072;-72
2021/06/28 12:34:56;;;;;;;3.80;1.67;;;32.10;55.80;;;;;;5141345;27;20023;-72
2021/06/28 12:37:27;;;;;;;4.25;1.35;;;32.10;58.50;;;;;;5141135;27;20035;-72
2021/06/28 12:40:08;;;;;;;2.65;1.40;;;32.20;57.60;;;;;;5141053;27;20055;-72
2021/06/28 12:43:04;;;;;;;9.10;1.50;;;32.10;56.40;;;;;;5141235;27;20358;-72
2021/06/28 12:45:48;;;;;;;5.35;1.73;;;32.10;58.30;;;;;;5135667;27;20111;-72
2021/06/28 12:48:30;;;;;;;5.93;2.05;;;32.10;55.50;;;;;;5140840;27;20407;-72
2021/06/28 12:51:01;;;;;;;6.03;1.70;;;32.20;58.80;;;;;;5141183;27;20319;-72
2021/06/28 12:53:30;;;;;;;2.95;2.10;;;32.20;58.50;;;;;;5141084;27;20054;-72
2021/06/28 12:56:20;;;;;;;4.22;1.70;;;32.00;54.40;;;;;;5141037;27;20027;-72
2021/06/28 12:58:57;;;;;;;5.07;1.60;;;32.00;55.10;;;;;;5140701;27;20031;-72